Time;durP1;ratioP1;P1;durP2;ratioP2;P2;SDS_P1;SDS_P2;PMS_P1;PMS_P2;Temp;Humidity;BMP_temperature;BMP_pressure;BME280_temperature;BME280_humidity;BME280_pressure;Samples;Min_cycle;Max_cycle;Signal;HPM_P1;HPM_P2
2022/11/01 00:01:28;;;;;;;1.83;0.80;;;24.60;49.40;;;;;;4057400;29;20119;-42
2022/11/01 00:03:50;;;;;;;2.97;0.77;;;24.60;49.80;;;;;;4057133;29;20086;-43
2022/11/01 00:06:13;;;;;;;3.72;0.90;;;24.70;49.90;;;;;;4052807;29;20040;-44
2022/11/01 00:08:36;;;;;;;0.80;0.43;;;24.70;49.50;;;;;;4056784;29;20107;-41
2022/11/01 00:11:06;;;;;;;1.85;0.50;;;24.70;48.40;;;;;;4054400;29;20424;-43
2022/11/01 00:13:29;;;;;;;1.08;0.40;;;24.70;48.50;;;;;;4055815;29;20098;-43
2022/11/01 00:15:52;;;;;;;1.00;0.40;;;24.70;48.40;;;;;;4054890;29;20059;-44
2022/11/01 00:18:15;;;;;;;0.43;0.30;;;24.70;48.70;;;;;;4056652;29;20080;-43
2022/11/01 00:20:37;;;;;;;0.40;0.40;;;24.70;48.60;;;;;;4055072;29;20563;-45
2022/11/01 00:23:00;;;;;;;0.45;0.45;;;24.60;48.60;;;;;;4056009;29;20044;-43
2022/11/01 00:25:22;;;;;;;1.50;0.20;;;24.60;48.70;;;;;;4055667;29;20071;-43
2022/11/01 00:27:45;;;;;;;0.95;0.50;;;24.60;48.40;;;;;;4055461;29;21029;-41
2022/11/01 00:30:07;;;;;;;0.38;0.30;;;24.60;48.60;;;;;;4051646;29;20054;-43
2022/11/01 00:32:30;;;;;;;0.28;0.28;;;24.60;48.50;;;;;;4054325;29;20055;-42
2022/11/01 00:34:52;;;;;;;3.20;0.52;;;24.60;49.20;;;;;;4055469;29;20031;-48
2022/11/01 00:37:15;;;;;;;1.58;0.47;;;24.60;48.40;;;;;;4055395;29;20511;-48
2022/11/01 00:39:37;;;;;;;0.63;0.30;;;24.50;48.40;;;;;;4056570;29;20036;-42
2022/11/01 00:42:00;;;;;;;0.30;0.30;;;24.60;48.40;;;;;;4059918;29;20532;-41
2022/11/01 00:44:22;;;;;;;0.30;0.30;;;24.50;48.50;;;;;;4058536;29;20135;-47
2022/11/01 00:46:45;;;;;;;0.20;0.20;;;24.50;48.40;;;;;;4058411;29;20411;-48
2022/11/01 00:49:07;;;;;;;0.73;0.40;;;24.50;48.40;;;;;;4057624;29;20056;-43
2022/11/01 00:51:30;;;;;;;0.28;0.28;;;24.50;48.50;;;;;;4054165;29;20052;-41
2022/11/01 00:53:53;;;;;;;0.22;0.22;;;24.50;48.40;;;;;;4052355;29;20047;-43
2022/11/01 00:56:15;;;;;;;0.20;0.20;;;24.50;48.40;;;;;;4058597;29;20465;-43
2022/11/01 00:58:38;;;;;;;0.20;0.20;;;24.50;48.40;;;;;;4053669;29;20738;-42
2022/11/01 01:01:01;;;;;;;0.80;0.30;;;24.40;48.40;;;;;;4055789;29;20060;-47
2022/11/01 01:03:23;;;;;;;0.13;0.13;;;24.40;48.20;;;;;;4055820;29;20057;-42
2022/11/01 01:05:49;;;;;;;0.30;0.30;;;24.50;48.40;;;;;;4052736;29;20044;-43
2022/11/01 01:08:11;;;;;;;0.20;0.20;;;24.40;48.30;;;;;;4056100;29;20076;-43
2022/11/01 01:10:35;;;;;;;0.50;0.30;;;24.40;48.20;;;;;;4053764;29;20047;-51
2022/11/01 01:12:58;;;;;;;0.20;0.20;;;24.40;48.30;;;;;;4050825;29;20044;-44
2022/11/01 01:15:20;;;;;;;0.25;0.25;;;24.40;48.20;;;;;;4053007;29;20492;-47
2022/11/01 01:17:43;;;;;;;0.20;0.20;;;24.40;48.20;;;;;;4052257;29;20045;-47
2022/11/01 01:20:06;;;;;;;0.15;0.15;;;24.40;48.30;;;;;;4057243;29;20115;-45
2022/11/01 01:22:29;;;;;;;0.10;0.10;;;24.40;48.30;;;;;;4055500;29;20476;-48
2022/11/01 01:24:51;;;;;;;0.13;0.13;;;24.40;48.20;;;;;;4052125;29;20099;-43
2022/11/01 01:27:15;;;;;;;0.20;0.20;;;24.40;48.20;;;;;;4054803;29;20381;-46
2022/11/01 01:29:40;;;;;;;;;;;24.40;48.20;;;;;;4055236;29;20413;-45
2022/11/01 01:32:03;;;;;;;0.20;0.20;;;24.40;48.30;;;;;;4054713;29;20367;-46
2022/11/01 01:34:25;;;;;;;0.20;0.20;;;24.40;48.20;;;;;;4049351;29;20045;-43
2022/11/01 01:36:48;;;;;;;0.20;0.20;;;24.30;48.20;;;;;;4048611;29;20587;-43
2022/11/01 01:39:10;;;;;;;0.10;0.10;;;24.40;48.30;;;;;;4053668;29;20056;-45
2022/11/01 01:44:49;;;;;;;0.38;0.30;;;24.40;48.30;;;;;;4053466;29;20106;-45
2022/11/01 01:47:26;;;;;;;0.20;0.20;;;24.40;48.30;;;;;;4056472;29;20473;-46
2022/11/01 01:50:03;;;;;;;0.20;0.20;;;24.30;48.00;;;;;;4058185;29;20493;-49
2022/11/01 01:52:30;;;;;;;0.20;0.20;;;24.30;48.20;;;;;;4053425;29;20090;-42
2022/11/01 01:54:53;;;;;;;0.20;0.20;;;24.30;48.00;;;;;;4055106;29;20045;-45
2022/11/01 01:57:16;;;;;;;0.20;0.20;;;24.30;48.10;;;;;;4052985;29;20540;-47
2022/11/01 01:59:40;;;;;;;0.20;0.20;;;24.30;48.10;;;;;;4051818;29;20494;-42
2022/11/01 02:02:02;;;;;;;;;;;24.30;48.10;;;;;;4049976;29;20045;-48
2022/11/01 02:04:40;;;;;;;0.22;0.20;;;24.30;48.10;;;;;;4054774;29;19915;-49
2022/11/01 02:07:03;;;;;;;0.55;0.30;;;24.30;48.00;;;;;;4050454;29;20033;-44
2022/11/01 02:09:26;;;;;;;0.30;0.20;;;24.30;48.10;;;;;;4052628;29;20048;-42
2022/11/01 02:11:49;;;;;;;0.13;0.13;;;24.30;48.10;;;;;;4052840;29;20028;-43
2022/11/01 02:14:11;;;;;;;0.20;0.20;;;24.20;48.00;;;;;;4054292;29;20111;-44
2022/11/01 02:16:48;;;;;;;0.40;0.20;;;24.20;48.00;;;;;;4052745;29;20044;-42
2022/11/01 02:19:23;;;;;;;0.25;0.25;;;24.20;48.00;;;;;;4054105;29;20063;-48
2022/11/01 02:21:55;;;;;;;0.30;0.20;;;24.20;48.00;;;;;;4055744;29;20040;-46
2022/11/01 02:24:48;;;;;;;0.20;0.20;;;24.20;47.90;;;;;;4059342;29;20192;-49
2022/11/01 02:27:31;;;;;;;0.35;0.20;;;24.20;48.00;;;;;;4059449;29;20067;-45
2022/11/01 02:30:14;;;;;;;0.10;0.10;;;24.20;48.00;;;;;;4057937;29;20063;-43
2022/11/01 02:32:38;;;;;;;0.20;0.20;;;24.20;48.00;;;;;;4058795;29;20074;-43
2022/11/01 02:35:36;;;;;;;0.28;0.20;;;24.20;48.00;;;;;;4059132;29;20040;-45
2022/11/01 02:38:02;;;;;;;0.20;0.20;;;24.20;48.00;;;;;;4053017;29;20083;-42
2022/11/01 02:40:34;;;;;;;0.20;0.20;;;24.20;48.00;;;;;;4059415;29;20560;-44
2022/11/01 02:43:03;;;;;;;0.20;0.20;;;24.20;48.00;;;;;;4056018;29;20099;-44
2022/11/01 02:45:37;;;;;;;0.20;0.20;;;24.20;48.10;;;;;;4059426;29;20123;-44
2022/11/01 02:48:00;;;;;;;;;;;24.20;47.90;;;;;;4054014;29;20044;-43
2022/11/01 02:50:25;;;;;;;0.45;0.30;;;24.30;48.00;;;;;;4058349;29;20422;-43
2022/11/01 02:52:48;;;;;;;3.25;0.40;;;24.20;47.90;;;;;;4054928;29;20111;-45
2022/11/01 02:55:32;;;;;;;6.63;0.63;;;24.20;48.00;;;;;;4055889;29;20095;-43
2022/11/01 02:58:01;;;;;;;2.30;0.75;;;24.20;47.70;;;;;;4049178;29;20048;-44
2022/11/01 03:00:30;;;;;;;2.90;1.05;;;24.20;48.40;;;;;;4056787;29;20070;-43
2022/11/01 03:03:09;;;;;;;4.13;0.70;;;24.20;49.00;;;;;;4056568;29;20056;-45
2022/11/01 03:05:55;;;;;;;1.20;0.47;;;24.30;49.50;;;;;;4059722;29;20378;-42
2022/11/01 03:08:23;;;;;;;3.45;0.60;;;24.30;49.80;;;;;;4056044;29;20083;-45
2022/11/01 03:11:06;;;;;;;1.45;0.50;;;24.40;50.20;;;;;;4056356;29;20044;-41
2022/11/01 03:14:06;;;;;;;1.63;0.65;;;24.40;50.40;;;;;;4055543;29;20065;-43
2022/11/01 03:16:43;;;;;;;2.15;0.70;;;24.50;50.70;;;;;;4058031;29;20044;-44
2022/11/01 03:19:28;;;;;;;2.15;0.50;;;24.50;50.90;;;;;;4053145;29;20086;-42
2022/11/01 03:22:23;;;;;;;2.60;0.40;;;24.50;50.90;;;;;;4054789;29;20032;-43
2022/11/01 03:24:46;;;;;;;1.10;0.55;;;24.60;51.00;;;;;;4060285;29;20530;-45
2022/11/01 03:27:15;;;;;;;1.95;0.47;;;24.60;51.30;;;;;;4057446;29;20055;-43
2022/11/01 03:29:40;;;;;;;0.20;0.20;;;24.60;49.20;;;;;;4054396;29;20040;-47
2022/11/01 03:32:05;;;;;;;1.13;0.60;;;24.60;47.10;;;;;;4060402;29;20050;-45
2022/11/01 03:34:27;;;;;;;0.47;0.30;;;24.60;47.50;;;;;;4058821;29;20047;-43
2022/11/01 03:36:54;;;;;;;1.50;0.50;;;24.70;47.80;;;;;;4051605;29;20216;-45
2022/11/01 03:39:22;;;;;;;0.20;0.20;;;24.70;48.00;;;;;;4056313;29;20427;-44
2022/11/01 03:41:48;;;;;;;1.27;0.50;;;24.70;48.00;;;;;;4060404;29;20139;-42
2022/11/01 03:44:13;;;;;;;1.00;0.40;;;24.80;48.20;;;;;;4056853;29;20044;-41
2022/11/01 03:46:36;;;;;;;2.50;0.38;;;24.80;48.40;;;;;;4056316;29;20040;-44
2022/11/01 03:48:58;;;;;;;1.00;0.52;;;24.90;48.40;;;;;;4055051;29;20492;-47
2022/11/01 03:51:21;;;;;;;0.47;0.40;;;24.90;48.50;;;;;;4051638;29;20060;-45
2022/11/01 03:53:43;;;;;;;1.17;0.45;;;24.90;48.40;;;;;;4050902;29;20136;-47
2022/11/01 03:56:06;;;;;;;1.60;0.30;;;25.00;48.30;;;;;;4051927;29;20481;-43
2022/11/01 03:58:40;;;;;;;3.08;0.43;;;25.00;48.50;;;;;;4056477;29;20118;-47
2022/11/01 04:01:02;;;;;;;3.72;0.45;;;25.10;48.60;;;;;;4055146;29;20535;-43
2022/11/01 04:03:25;;;;;;;0.75;0.30;;;25.10;48.20;;;;;;4054194;29;20052;-43
2022/11/01 04:05:47;;;;;;;0.85;0.30;;;25.20;48.30;;;;;;4051696;29;20061;-47
2022/11/01 04:08:11;;;;;;;0.95;0.20;;;25.20;48.30;;;;;;4055010;29;20524;-45
2022/11/01 04:10:34;;;;;;;1.63;0.63;;;25.30;48.20;;;;;;4056393;29;20127;-44
2022/11/01 04:12:57;;;;;;;0.70;0.30;;;25.30;48.20;;;;;;4056253;29;20107;-44
2022/11/01 04:20:45;;;;;;;1.95;0.40;;;25.50;48.10;;;;;;4055997;29;20055;-47
2022/11/01 04:23:08;;;;;;;5.13;0.50;;;25.60;48.00;;;;;;4052636;29;20091;-45
2022/11/01 04:25:31;;;;;;;1.30;0.30;;;25.60;47.90;;;;;;4052671;29;20386;-45
2022/11/01 04:27:56;;;;;;;1.70;0.40;;;25.70;48.00;;;;;;4055582;29;20496;-42
2022/11/01 04:30:18;;;;;;;1.77;0.38;;;25.80;47.80;;;;;;4053743;29;20646;-45
2022/11/01 04:32:45;;;;;;;1.55;0.40;;;25.80;47.60;;;;;;4054317;29;20519;-47
2022/11/01 04:35:10;;;;;;;0.30;0.30;;;25.90;47.80;;;;;;4054597;29;20361;-45
2022/11/01 04:37:32;;;;;;;0.90;0.30;;;26.00;47.60;;;;;;4056738;28;20072;-44
2022/11/01 04:39:55;;;;;;;1.70;0.30;;;26.00;47.50;;;;;;4051051;29;20038;-44
2022/11/01 04:42:17;;;;;;;0.57;0.20;;;26.00;47.50;;;;;;4057021;29;20047;-44
2022/11/01 04:44:40;;;;;;;0.90;0.40;;;25.90;47.40;;;;;;4053272;29;20610;-45
2022/11/01 04:47:02;;;;;;;10.27;0.60;;;25.90;47.60;;;;;;4056231;29;20107;-44
2022/11/01 04:49:25;;;;;;;2.17;0.60;;;25.90;47.60;;;;;;4051258;29;20044;-41
2022/11/01 04:51:47;;;;;;;1.35;0.22;;;25.80;47.60;;;;;;4053932;29;20400;-42
2022/11/01 04:54:10;;;;;;;0.55;0.30;;;25.80;47.60;;;;;;4052616;29;20060;-42
2022/11/01 04:56:33;;;;;;;2.42;0.30;;;25.80;47.60;;;;;;4055070;29;20082;-42
2022/11/01 04:58:57;;;;;;;1.53;0.47;;;25.80;47.60;;;;;;4053618;29;20036;-45
2022/11/01 05:01:19;;;;;;;1.00;0.30;;;25.80;47.50;;;;;;4053400;29;20286;-42
2022/11/01 05:03:42;;;;;;;0.32;0.30;;;25.70;47.40;;;;;;4056678;29;20099;-43
2022/11/01 05:06:05;;;;;;;0.25;0.17;;;25.70;47.30;;;;;;4054032;29;20036;-43
2022/11/01 05:08:28;;;;;;;0.30;0.30;;;25.70;47.20;;;;;;4052681;29;20040;-47
2022/11/01 05:10:53;;;;;;;0.52;0.40;;;25.70;47.00;;;;;;4055981;29;20075;-43
2022/11/01 05:13:16;;;;;;;1.83;0.40;;;25.70;45.30;;;;;;4055090;29;20071;-46
2022/11/01 05:15:39;;;;;;;3.30;0.55;;;25.60;44.00;;;;;;4054983;29;20039;-44
2022/11/01 05:18:02;;;;;;;0.60;0.30;;;25.60;43.40;;;;;;4054133;29;20048;-43
2022/11/01 05:20:25;;;;;;;1.42;0.63;;;25.60;43.30;;;;;;4055521;29;20413;-44
2022/11/01 05:22:47;;;;;;;0.30;0.30;;;25.50;43.30;;;;;;4051958;29;20048;-42
2022/11/01 05:25:10;;;;;;;2.13;0.40;;;25.50;43.60;;;;;;4055975;29;20044;-42
2022/11/01 05:27:33;;;;;;;2.63;0.40;;;25.60;43.90;;;;;;4051963;29;20096;-44
2022/11/01 05:29:55;;;;;;;0.60;0.43;;;25.50;44.30;;;;;;4057409;29;20377;-42
2022/11/01 05:32:18;;;;;;;1.23;0.50;;;25.60;44.70;;;;;;4054704;29;20028;-44
2022/11/01 05:34:40;;;;;;;4.07;0.73;;;25.50;44.90;;;;;;4054987;29;20381;-43
2022/11/01 05:37:03;;;;;;;15.68;1.65;;;25.60;45.40;;;;;;4054827;29;20040;-48
2022/11/01 05:39:25;;;;;;;2.97;0.95;;;25.50;45.80;;;;;;4055552;29;20080;-43
2022/11/01 05:41:48;;;;;;;2.92;0.80;;;25.60;45.80;;;;;;4055145;29;20513;-46
2022/11/01 05:44:10;;;;;;;5.38;0.80;;;25.60;45.80;;;;;;4050509;29;20592;-44
2022/11/01 05:46:33;;;;;;;4.47;1.00;;;25.60;45.90;;;;;;4057758;29;20045;-44
2022/11/01 05:48:56;;;;;;;3.87;0.60;;;25.60;46.00;;;;;;4057788;29;20073;-47
2022/11/01 05:51:19;;;;;;;3.53;0.67;;;25.60;45.90;;;;;;4048123;29;20055;-47
2022/11/01 05:53:41;;;;;;;0.98;0.43;;;25.60;45.90;;;;;;4055855;29;20040;-46
2022/11/01 05:56:04;;;;;;;0.95;0.50;;;25.70;46.00;;;;;;4055778;29;20242;-43
2022/11/01 05:58:27;;;;;;;1.75;0.50;;;25.60;46.00;;;;;;4058651;29;20040;-44
2022/11/01 06:00:50;;;;;;;0.52;0.30;;;25.60;46.20;;;;;;4058610;29;20051;-45
2022/11/01 06:03:12;;;;;;;1.40;0.30;;;25.60;46.20;;;;;;4054463;29;20056;-47
2022/11/01 06:05:38;;;;;;;0.68;0.30;;;25.60;46.30;;;;;;4057322;29;20051;-48
2022/11/01 06:08:01;;;;;;;1.85;0.40;;;25.60;46.40;;;;;;4057002;29;20032;-44
2022/11/01 06:10:24;;;;;;;0.75;0.35;;;25.60;46.40;;;;;;4057714;29;20056;-44
2022/11/01 06:12:46;;;;;;;0.55;0.30;;;25.60;46.50;;;;;;4057145;29;20575;-46
2022/11/01 06:15:12;;;;;;;2.50;0.50;;;25.60;46.60;;;;;;4057432;29;20138;-45
2022/11/01 06:17:34;;;;;;;2.72;0.60;;;25.60;46.80;;;;;;4054819;29;20028;-43
2022/11/01 06:19:57;;;;;;;1.33;0.43;;;25.50;46.90;;;;;;4058932;29;20044;-43
2022/11/01 06:22:20;;;;;;;1.33;0.38;;;25.60;47.00;;;;;;4059930;29;20048;-47
2022/11/01 06:24:42;;;;;;;1.50;0.30;;;25.50;46.90;;;;;;4059103;29;20052;-46
2022/11/01 06:27:05;;;;;;;0.35;0.30;;;25.50;46.90;;;;;;4058458;29;20036;-45
2022/11/01 06:29:27;;;;;;;0.73;0.20;;;25.50;46.80;;;;;;4056817;29;20071;-47
2022/11/01 06:31:50;;;;;;;0.63;0.30;;;25.50;46.80;;;;;;4058868;29;20434;-46
2022/11/01 06:34:12;;;;;;;0.57;0.40;;;25.60;47.20;;;;;;4058558;29;20678;-46
2022/11/01 06:36:35;;;;;;;0.80;0.30;;;25.60;46.90;;;;;;4058830;29;20028;-44
2022/11/01 06:38:57;;;;;;;0.45;0.30;;;25.60;46.90;;;;;;4055340;29;20119;-45
2022/11/01 06:41:20;;;;;;;0.17;0.10;;;25.70;46.80;;;;;;4058869;29;20040;-54
2022/11/01 06:43:42;;;;;;;1.67;0.30;;;25.70;46.70;;;;;;4056864;29;20106;-49
2022/11/01 06:46:05;;;;;;;2.53;0.40;;;25.70;46.60;;;;;;4058421;29;20032;-51
2022/11/01 06:48:28;;;;;;;1.52;0.50;;;25.80;46.70;;;;;;4056748;29;20476;-45
2022/11/01 06:50:52;;;;;;;2.25;0.70;;;25.80;46.70;;;;;;4057752;29;20070;-46
2022/11/01 06:53:15;;;;;;;0.43;0.20;;;25.80;46.80;;;;;;4057234;29;20092;-44
2022/11/01 06:55:37;;;;;;;0.60;0.40;;;25.80;46.80;;;;;;4056984;29;20039;-46
2022/11/01 06:58:02;;;;;;;5.78;0.50;;;25.80;46.70;;;;;;4054906;29;20103;-44
2022/11/01 07:00:26;;;;;;;1.48;0.30;;;25.80;46.60;;;;;;4055878;29;20040;-46
2022/11/01 07:02:49;;;;;;;1.38;0.73;;;25.80;46.60;;;;;;4056277;29;20599;-44
2022/11/01 07:05:11;;;;;;;0.40;0.20;;;25.80;46.50;;;;;;4056540;29;20426;-47
2022/11/01 07:07:34;;;;;;;0.43;0.30;;;25.80;46.50;;;;;;4053531;29;20044;-45
2022/11/01 07:09:56;;;;;;;0.70;0.30;;;25.90;46.60;;;;;;4056749;29;20040;-44
2022/11/01 07:12:19;;;;;;;0.90;0.30;;;25.80;46.50;;;;;;4057007;29;20044;-42
2022/11/01 07:14:41;;;;;;;1.50;0.38;;;25.80;46.40;;;;;;4055304;29;20054;-46
2022/11/01 07:17:04;;;;;;;1.23;0.30;;;25.80;46.40;;;;;;4055344;29;20042;-44
2022/11/01 07:19:26;;;;;;;1.85;0.45;;;25.80;46.30;;;;;;4054831;29;20076;-48
2022/11/01 07:21:49;;;;;;;0.22;0.20;;;25.80;46.30;;;;;;4057067;29;20114;-44
2022/11/01 07:24:12;;;;;;;1.13;0.30;;;25.70;46.20;;;;;;4055963;29;20726;-43
2022/11/01 07:26:34;;;;;;;0.20;0.20;;;25.70;46.20;;;;;;4058924;29;20040;-42
2022/11/01 07:28:57;;;;;;;1.77;0.30;;;25.70;46.30;;;;;;4055389;29;20036;-44
2022/11/01 07:31:20;;;;;;;2.65;0.60;;;25.70;46.30;;;;;;4058506;29;20462;-42
2022/11/01 07:33:42;;;;;;;0.30;0.20;;;25.70;46.40;;;;;;4055708;29;20096;-46
2022/11/01 07:36:05;;;;;;;1.05;0.30;;;25.70;46.30;;;;;;4057423;29;20040;-45
2022/11/01 07:38:28;;;;;;;1.08;0.30;;;25.60;46.30;;;;;;4058652;29;20035;-46
2022/11/01 07:40:53;;;;;;;3.63;0.55;;;25.60;46.30;;;;;;4057130;29;20047;-48
2022/11/01 07:43:17;;;;;;;1.42;0.30;;;25.60;46.40;;;;;;4054512;29;20483;-45
2022/11/01 07:45:39;;;;;;;0.43;0.30;;;25.60;46.50;;;;;;4056252;29;20032;-46
2022/11/01 07:48:04;;;;;;;1.38;0.30;;;25.60;46.60;;;;;;4055883;29;20139;-44
2022/11/01 07:50:31;;;;;;;7.28;0.52;;;25.60;46.50;;;;;;4053067;29;20118;-45
2022/11/01 07:53:08;;;;;;;2.13;0.43;;;25.60;46.60;;;;;;4058081;29;20428;-46
2022/11/01 07:55:31;;;;;;;0.35;0.30;;;25.60;46.60;;;;;;4056164;29;20127;-43
2022/11/01 07:57:53;;;;;;;3.10;0.50;;;25.50;46.50;;;;;;4058217;29;20040;-43
2022/11/01 08:00:16;;;;;;;1.35;0.30;;;25.50;46.60;;;;;;4054664;29;20682;-42
2022/11/01 08:02:39;;;;;;;1.75;0.40;;;25.50;46.70;;;;;;4058551;29;20424;-46
2022/11/01 08:05:01;;;;;;;3.17;0.43;;;25.50;46.60;;;;;;4056379;29;20040;-44
2022/11/01 08:07:24;;;;;;;4.63;0.65;;;25.50;46.60;;;;;;4056704;29;20040;-47
2022/11/01 08:09:47;;;;;;;3.97;0.40;;;25.50;46.70;;;;;;4057068;29;20063;-47
2022/11/01 08:12:10;;;;;;;0.25;0.20;;;25.50;46.80;;;;;;4056945;29;20044;-42
2022/11/01 08:14:33;;;;;;;0.25;0.20;;;25.40;46.70;;;;;;4054185;29;20482;-46
2022/11/01 08:16:59;;;;;;;2.28;0.55;;;25.40;46.60;;;;;;4057223;29;20044;-46
2022/11/01 08:19:22;;;;;;;2.28;0.30;;;25.50;46.70;;;;;;4055824;29;20471;-49
2022/11/01 08:21:44;;;;;;;1.77;0.40;;;25.40;46.60;;;;;;4054989;29;20520;-46
2022/11/01 08:24:07;;;;;;;0.35;0.30;;;25.40;46.60;;;;;;4052400;29;20455;-45
2022/11/01 08:26:30;;;;;;;0.90;0.40;;;25.40;46.60;;;;;;4055509;29;20036;-44
2022/11/01 08:28:52;;;;;;;0.88;0.40;;;25.40;46.60;;;;;;4055805;29;20044;-48
2022/11/01 08:31:15;;;;;;;1.60;0.30;;;25.40;46.70;;;;;;4055849;29;20122;-43
2022/11/01 08:33:37;;;;;;;4.28;0.75;;;25.40;46.70;;;;;;4055946;29;20043;-48
2022/11/01 08:36:00;;;;;;;0.35;0.32;;;25.40;46.80;;;;;;4051538;29;20048;-45
2022/11/01 08:38:23;;;;;;;0.40;0.40;;;25.30;46.70;;;;;;4054448;29;20431;-48
2022/11/01 08:40:45;;;;;;;1.40;0.30;;;25.40;46.80;;;;;;4052630;29;20610;-48
2022/11/01 08:43:08;;;;;;;0.95;0.82;;;25.30;46.80;;;;;;4055248;29;20056;-45
2022/11/01 08:45:31;;;;;;;2.40;0.40;;;25.30;46.70;;;;;;4055406;29;20178;-45
2022/11/01 08:48:02;;;;;;;0.10;0.10;;;25.30;46.70;;;;;;4055987;29;20484;-49
2022/11/01 08:50:24;;;;;;;0.70;0.47;;;25.30;46.60;;;;;;4056663;29;20107;-45
2022/11/01 08:52:47;;;;;;;1.10;0.50;;;25.30;46.60;;;;;;4025862;29;20045;-46
2022/11/01 08:55:10;;;;;;;3.13;0.75;;;25.30;46.70;;;;;;4024681;29;20117;-46
2022/11/01 08:57:33;;;;;;;7.80;0.82;;;25.30;46.70;;;;;;4024438;29;20070;-46
2022/11/01 08:59:56;;;;;;;1.17;0.53;;;25.20;46.60;;;;;;4026027;29;20036;-44
2022/11/01 09:02:18;;;;;;;0.88;0.30;;;25.20;46.50;;;;;;4026852;29;20052;-47
2022/11/01 09:04:41;;;;;;;0.80;0.32;;;25.20;44.80;;;;;;4028801;29;20044;-46
2022/11/01 09:07:04;;;;;;;1.73;0.38;;;25.10;43.60;;;;;;4026017;29;20156;-48
2022/11/01 09:09:26;;;;;;;0.60;0.30;;;25.10;43.00;;;;;;4024744;29;20033;-44
2022/11/01 09:11:49;;;;;;;1.05;0.43;;;25.00;44.30;;;;;;4024993;29;20049;-47
2022/11/01 09:14:11;;;;;;;0.73;0.30;;;25.10;44.50;;;;;;4022801;29;20037;-43
2022/11/01 09:16:34;;;;;;;3.70;0.50;;;25.00;45.00;;;;;;4026480;29;20041;-52
2022/11/01 09:19:00;;;;;;;3.38;0.50;;;25.00;45.40;;;;;;4024987;29;20047;-47
2022/11/01 09:21:22;;;;;;;2.05;0.30;;;25.00;45.60;;;;;;4026415;29;20127;-47
2022/11/01 09:23:45;;;;;;;0.63;0.30;;;25.00;45.80;;;;;;4025281;29;20053;-46
2022/11/01 09:26:10;;;;;;;3.47;0.50;;;25.00;46.10;;;;;;4026880;29;20084;-47
2022/11/01 09:28:33;;;;;;;0.52;0.20;;;25.00;45.50;;;;;;4025356;29;20450;-50
2022/11/01 09:30:56;;;;;;;4.43;0.70;;;24.90;43.20;;;;;;4028049;29;20068;-48
2022/11/01 09:33:22;;;;;;;1.93;0.30;;;24.90;42.40;;;;;;4026276;29;20488;-45
2022/11/01 09:35:50;;;;;;;0.38;0.38;;;24.80;42.20;;;;;;4029139;29;20519;-46
2022/11/01 09:38:13;;;;;;;1.75;0.77;;;24.80;42.30;;;;;;4024901;29;20041;-47
2022/11/01 09:40:44;;;;;;;2.40;0.80;;;24.80;42.70;;;;;;4028827;29;20045;-48
2022/11/01 09:43:08;;;;;;;1.17;0.60;;;24.70;42.70;;;;;;4028359;29;20053;-48
2022/11/01 09:45:33;;;;;;;0.63;0.40;;;24.70;42.60;;;;;;4027981;29;20048;-46
2022/11/01 09:47:57;;;;;;;0.50;0.38;;;24.60;42.50;;;;;;4027266;29;20044;-48
2022/11/01 09:50:33;;;;;;;;;;;24.60;42.70;;;;;;4029854;29;20070;-47
2022/11/01 09:52:56;;;;;;;1.52;0.45;;;24.50;43.00;;;;;;4027826;29;20402;-47
2022/11/01 09:55:47;;;;;;;1.50;0.60;;;24.50;43.00;;;;;;4026901;29;20037;-45
2022/11/01 09:58:26;;;;;;;10.23;0.82;;;24.50;43.30;;;;;;4027601;29;20056;-52
2022/11/01 10:01:09;;;;;;;3.17;0.30;;;24.50;43.80;;;;;;4027797;29;20041;-49
2022/11/01 10:04:05;;;;;;;1.73;0.40;;;24.50;44.30;;;;;;4039810;29;20052;-42
2022/11/01 10:06:38;;;;;;;1.23;0.40;;;24.40;44.70;;;;;;4026112;29;20557;-41
2022/11/01 10:09:12;;;;;;;0.63;0.38;;;24.50;45.00;;;;;;4026976;29;20117;-45
2022/11/01 10:12:09;;;;;;;1.35;0.40;;;24.50;44.90;;;;;;4025945;29;20118;-47
2022/11/01 10:15:00;;;;;;;1.05;0.40;;;24.40;44.90;;;;;;4026556;29;20041;-44
2022/11/01 10:17:53;;;;;;;1.80;0.47;;;24.40;45.00;;;;;;4026429;29;20049;-45
2022/11/01 10:20:16;;;;;;;0.45;0.30;;;24.40;45.50;;;;;;4025232;29;20461;-41
2022/11/01 10:22:41;;;;;;;2.00;0.50;;;24.40;45.60;;;;;;4027408;29;20402;-45
2022/11/01 10:25:29;;;;;;;5.03;0.55;;;24.40;45.80;;;;;;4026904;29;20037;-49
2022/11/01 10:27:54;;;;;;;0.38;0.38;;;24.40;45.90;;;;;;4025446;29;20062;-45
2022/11/01 10:30:18;;;;;;;1.25;0.30;;;24.40;46.00;;;;;;4026572;29;20437;-44
2022/11/01 10:32:49;;;;;;;3.33;0.38;;;24.40;45.90;;;;;;4027213;29;20637;-47
2022/11/01 10:35:20;;;;;;;2.30;0.30;;;24.40;45.90;;;;;;4027390;29;20766;-41
2022/11/01 10:37:50;;;;;;;2.22;0.50;;;24.40;46.10;;;;;;4028052;29;20037;-43
2022/11/01 10:40:23;;;;;;;0.75;0.40;;;24.40;46.00;;;;;;4026845;29;20529;-43
2022/11/01 10:42:46;;;;;;;0.43;0.20;;;24.40;46.10;;;;;;4026503;29;20123;-42
2022/11/01 10:45:15;;;;;;;0.98;0.28;;;24.40;46.10;;;;;;4026575;29;20056;-42
2022/11/01 10:47:41;;;;;;;0.40;0.40;;;24.40;46.10;;;;;;4026977;29;20391;-43
2022/11/01 10:50:09;;;;;;;1.77;0.40;;;24.40;46.10;;;;;;4027006;29;20044;-50
2022/11/01 10:52:41;;;;;;;2.28;0.47;;;24.40;46.20;;;;;;4056757;29;20048;-50
2022/11/01 10:55:06;;;;;;;2.20;0.50;;;24.40;46.20;;;;;;4054614;29;20028;-45
2022/11/01 10:57:52;;;;;;;6.63;0.52;;;24.40;46.10;;;;;;4057499;29;20522;-43
2022/11/01 11:00:20;;;;;;;0.88;0.50;;;24.30;46.10;;;;;;4057366;29;20040;-43
2022/11/01 11:02:50;;;;;;;0.15;0.15;;;24.30;46.10;;;;;;4053884;29;20044;-45
2022/11/01 11:05:14;;;;;;;3.08;0.70;;;24.30;46.20;;;;;;4056885;29;20040;-51
2022/11/01 11:07:36;;;;;;;3.33;1.00;;;24.30;46.30;;;;;;4057507;29;20143;-44
2022/11/01 11:10:02;;;;;;;1.05;0.43;;;24.30;46.30;;;;;;4058001;29;20036;-44
2022/11/01 11:12:26;;;;;;;1.52;0.40;;;24.30;46.30;;;;;;4057830;29;20048;-44
2022/11/01 11:15:02;;;;;;;0.47;0.22;;;24.20;46.20;;;;;;4057210;29;20052;-46
2022/11/01 11:17:45;;;;;;;1.05;0.30;;;24.20;46.20;;;;;;4055162;29;20039;-49
2022/11/01 11:20:15;;;;;;;1.13;0.47;;;24.20;46.20;;;;;;4055369;29;20072;-49
2022/11/01 11:22:42;;;;;;;0.75;0.30;;;24.20;46.30;;;;;;4057506;29;20040;-46
2022/11/01 11:25:05;;;;;;;1.10;0.40;;;24.20;46.40;;;;;;4055164;29;20044;-45
2022/11/01 11:27:33;;;;;;;0.43;0.30;;;24.20;46.10;;;;;;4056315;29;20098;-48
2022/11/01 11:30:00;;;;;;;0.93;0.40;;;24.10;46.20;;;;;;4055777;29;20830;-46
2022/11/01 11:32:29;;;;;;;0.98;0.63;;;24.10;46.20;;;;;;4056659;29;20039;-48
2022/11/01 11:35:01;;;;;;;3.20;0.63;;;24.10;46.30;;;;;;4054378;29;20067;-46
2022/11/01 11:37:28;;;;;;;0.40;0.30;;;24.10;46.20;;;;;;4057364;29;20610;-45
2022/11/01 11:40:12;;;;;;;0.68;0.30;;;24.10;46.40;;;;;;4055435;29;20504;-49
2022/11/01 11:42:34;;;;;;;0.52;0.40;;;24.10;46.60;;;;;;4056637;29;20111;-45
2022/11/01 11:45:20;;;;;;;0.65;0.20;;;24.00;46.40;;;;;;4057759;29;20075;-46
2022/11/01 11:47:43;;;;;;;0.30;0.30;;;24.00;46.30;;;;;;4055634;29;20597;-45
2022/11/01 11:50:36;;;;;;;0.93;0.30;;;24.00;46.20;;;;;;4056157;29;20437;-49
2022/11/01 11:53:08;;;;;;;1.88;0.30;;;24.00;46.30;;;;;;4052460;29;20060;-48
2022/11/01 11:55:40;;;;;;;3.42;0.30;;;24.00;46.50;;;;;;4055472;29;22174;-47
2022/11/01 11:58:05;;;;;;;0.77;0.20;;;24.00;46.50;;;;;;4056158;29;20051;-44
2022/11/01 12:00:29;;;;;;;3.42;0.32;;;24.00;46.20;;;;;;4054387;29;20036;-47
2022/11/01 12:02:52;;;;;;;0.30;0.30;;;24.00;46.20;;;;;;4055700;29;20148;-45
2022/11/01 12:05:25;;;;;;;1.17;0.50;;;23.90;46.10;;;;;;4056804;29;20460;-43
2022/11/01 12:07:50;;;;;;;0.52;0.40;;;23.90;46.20;;;;;;4054119;29;20473;-47
2022/11/01 12:10:39;;;;;;;2.15;0.45;;;23.90;46.40;;;;;;4057877;29;20492;-51
2022/11/01 12:13:22;;;;;;;0.20;0.20;;;23.80;46.40;;;;;;4056080;29;20078;-48
2022/11/01 12:15:45;;;;;;;0.47;0.20;;;23.80;46.30;;;;;;4057842;29;20032;-47
2022/11/01 12:18:14;;;;;;;0.40;0.20;;;23.80;46.50;;;;;;4055409;29;20487;-47
2022/11/01 12:20:38;;;;;;;0.45;0.28;;;23.80;46.40;;;;;;4054082;29;20040;-47
2022/11/01 12:23:15;;;;;;;1.38;0.25;;;23.80;46.40;;;;;;4055358;29;20048;-47
2022/11/01 12:25:41;;;;;;;0.88;0.47;;;23.80;46.40;;;;;;4056999;29;20524;-47
2022/11/01 12:28:40;;;;;;;1.85;0.30;;;23.80;46.40;;;;;;4053802;29;20461;-51
2022/11/01 12:31:19;;;;;;;0.10;0.10;;;23.80;46.40;;;;;;4055057;29;20412;-48
2022/11/01 12:33:45;;;;;;;0.32;0.32;;;23.70;46.30;;;;;;4053067;29;20068;-51
2022/11/01 12:36:10;;;;;;;7.47;0.43;;;23.70;46.20;;;;;;4056409;29;20044;-47
2022/11/01 12:39:11;;;;;;;1.38;0.30;;;23.70;46.40;;;;;;4053087;29;20032;-50
2022/11/01 12:41:44;;;;;;;0.20;0.20;;;23.70;46.40;;;;;;4055481;29;20303;-46
2022/11/01 12:44:15;;;;;;;0.38;0.35;;;23.60;46.30;;;;;;4055871;29;20223;-45
2022/11/01 12:46:44;;;;;;;0.32;0.30;;;23.60;46.30;;;;;;4054103;29;20043;-50
2022/11/01 12:49:16;;;;;;;0.13;0.13;;;23.60;46.30;;;;;;4055669;29;20609;-53
2022/11/01 12:52:13;;;;;;;0.30;0.30;;;23.60;46.30;;;;;;4052030;29;20568;-45
2022/11/01 12:54:45;;;;;;;0.28;0.25;;;23.60;46.20;;;;;;4053570;29;20050;-47